sensor_id;sensor_type;location;lat;lon;timestamp;P1;durP1;ratioP1;P2;durP2;ratioP2
10880;SDS011;5493;48.884;8.338;2023-04-24T00:00:45;0.77;;;0.73;;
10880;SDS011;5493;48.884;8.338;2023-04-24T00:03:11;0.93;;;0.60;;
10880;SDS011;5493;48.884;8.338;2023-04-24T00:05:39;1.23;;;0.57;;
10880;SDS011;5493;48.884;8.338;2023-04-24T00:08:07;1.40;;;0.60;;
10880;SDS011;5493;48.884;8.338;2023-04-24T00:10:34;1.63;;;0.70;;
10880;SDS011;5493;48.884;8.338;2023-04-24T00:13:00;1.90;;;0.67;;
10880;SDS011;5493;48.884;8.338;2023-04-24T00:15:27;1.50;;;0.50;;
10880;SDS011;5493;48.884;8.338;2023-04-24T00:17:53;0.60;;;0.53;;
10880;SDS011;5493;48.884;8.338;2023-04-24T00:20:20;1.13;;;0.60;;
10880;SDS011;5493;48.884;8.338;2023-04-24T00:22:47;1.33;;;0.50;;
10880;SDS011;5493;48.884;8.338;2023-04-24T00:25:15;1.50;;;0.50;;
10880;SDS011;5493;48.884;8.338;2023-04-24T00:27:42;1.00;;;0.60;;
10880;SDS011;5493;48.884;8.338;2023-04-24T00:30:09;1.10;;;0.47;;
10880;SDS011;5493;48.884;8.338;2023-04-24T00:32:36;1.80;;;0.70;;
10880;SDS011;5493;48.884;8.338;2023-04-24T00:35:02;0.80;;;0.60;;
10880;SDS011;5493;48.884;8.338;2023-04-24T00:37:30;1.60;;;0.57;;
10880;SDS011;5493;48.884;8.338;2023-04-24T00:39:57;0.73;;;0.60;;
10880;SDS011;5493;48.884;8.338;2023-04-24T00:42:25;1.03;;;0.53;;
10880;SDS011;5493;48.884;8.338;2023-04-24T00:44:51;1.57;;;0.37;;
10880;SDS011;5493;48.884;8.338;2023-04-24T00:47:19;1.90;;;0.60;;
10880;SDS011;5493;48.884;8.338;2023-04-24T00:49:46;1.40;;;0.50;;
10880;SDS011;5493;48.884;8.338;2023-04-24T00:52:13;1.17;;;0.60;;
10880;SDS011;5493;48.884;8.338;2023-04-24T00:54:42;2.90;;;0.70;;
10880;SDS011;5493;48.884;8.338;2023-04-24T00:57:09;1.30;;;0.77;;
10880;SDS011;5493;48.884;8.338;2023-04-24T00:59:37;1.63;;;0.57;;
10880;SDS011;5493;48.884;8.338;2023-04-24T01:02:06;0.37;;;0.37;;
10880;SDS011;5493;48.884;8.338;2023-04-24T01:04:33;1.83;;;0.93;;
10880;SDS011;5493;48.884;8.338;2023-04-24T01:07:01;2.23;;;0.73;;
10880;SDS011;5493;48.884;8.338;2023-04-24T01:09:27;3.73;;;0.80;;
10880;SDS011;5493;48.884;8.338;2023-04-24T01:11:54;1.03;;;0.60;;
10880;SDS011;5493;48.884;8.338;2023-04-24T01:14:21;0.70;;;0.70;;
10880;SDS011;5493;48.884;8.338;2023-04-24T01:16:50;1.13;;;0.60;;
10880;SDS011;5493;48.884;8.338;2023-04-24T01:19:16;1.33;;;0.63;;
10880;SDS011;5493;48.884;8.338;2023-04-24T01:21:44;1.57;;;0.40;;
10880;SDS011;5493;48.884;8.338;2023-04-24T01:24:14;0.77;;;0.50;;
10880;SDS011;5493;48.884;8.338;2023-04-24T01:26:41;2.17;;;1.00;;
10880;SDS011;5493;48.884;8.338;2023-04-24T01:29:08;1.80;;;0.67;;
10880;SDS011;5493;48.884;8.338;2023-04-24T01:31:35;1.03;;;0.53;;
10880;SDS011;5493;48.884;8.338;2023-04-24T01:34:02;1.43;;;0.60;;
10880;SDS011;5493;48.884;8.338;2023-04-24T01:36:29;1.90;;;0.50;;
10880;SDS011;5493;48.884;8.338;2023-04-24T01:38:57;2.23;;;0.73;;
10880;SDS011;5493;48.884;8.338;2023-04-24T01:41:25;1.30;;;0.43;;
10880;SDS011;5493;48.884;8.338;2023-04-24T01:43:51;0.77;;;0.70;;
10880;SDS011;5493;48.884;8.338;2023-04-24T01:46:18;0.40;;;0.40;;
10880;SDS011;5493;48.884;8.338;2023-04-24T01:48:45;2.43;;;0.60;;
10880;SDS011;5493;48.884;8.338;2023-04-24T01:51:11;0.90;;;0.60;;
10880;SDS011;5493;48.884;8.338;2023-04-24T01:53:38;1.20;;;0.50;;
10880;SDS011;5493;48.884;8.338;2023-04-24T01:56:05;0.50;;;0.30;;
10880;SDS011;5493;48.884;8.338;2023-04-24T01:58:33;1.50;;;0.73;;
10880;SDS011;5493;48.884;8.338;2023-04-24T02:01:00;2.73;;;0.70;;
10880;SDS011;5493;48.884;8.338;2023-04-24T02:03:27;0.73;;;0.60;;
10880;SDS011;5493;48.884;8.338;2023-04-24T02:05:53;1.30;;;0.63;;
10880;SDS011;5493;48.884;8.338;2023-04-24T02:08:20;2.03;;;0.83;;
10880;SDS011;5493;48.884;8.338;2023-04-24T02:10:46;0.97;;;0.60;;
10880;SDS011;5493;48.884;8.338;2023-04-24T02:13:13;1.73;;;0.80;;
10880;SDS011;5493;48.884;8.338;2023-04-24T02:15:40;1.90;;;0.80;;
10880;SDS011;5493;48.884;8.338;2023-04-24T02:18:07;1.57;;;0.70;;
10880;SDS011;5493;48.884;8.338;2023-04-24T02:20:33;1.67;;;0.30;;
10880;SDS011;5493;48.884;8.338;2023-04-24T02:23:00;0.90;;;0.80;;
10880;SDS011;5493;48.884;8.338;2023-04-24T02:25:27;0.67;;;0.50;;
10880;SDS011;5493;48.884;8.338;2023-04-24T02:27:53;2.67;;;0.80;;
10880;SDS011;5493;48.884;8.338;2023-04-24T02:30:20;3.20;;;0.80;;
10880;SDS011;5493;48.884;8.338;2023-04-24T02:32:48;1.10;;;0.60;;
10880;SDS011;5493;48.884;8.338;2023-04-24T02:35:14;0.47;;;0.43;;
10880;SDS011;5493;48.884;8.338;2023-04-24T02:37:41;1.23;;;0.60;;
10880;SDS011;5493;48.884;8.338;2023-04-24T02:40:08;2.43;;;0.73;;
10880;SDS011;5493;48.884;8.338;2023-04-24T02:42:35;1.63;;;0.60;;
10880;SDS011;5493;48.884;8.338;2023-04-24T02:45:01;0.63;;;0.50;;
10880;SDS011;5493;48.884;8.338;2023-04-24T02:47:28;2.63;;;0.60;;
10880;SDS011;5493;48.884;8.338;2023-04-24T02:49:56;1.77;;;0.70;;
10880;SDS011;5493;48.884;8.338;2023-04-24T02:52:22;1.77;;;0.77;;
10880;SDS011;5493;48.884;8.338;2023-04-24T02:54:49;0.80;;;0.60;;
10880;SDS011;5493;48.884;8.338;2023-04-24T02:57:15;1.17;;;0.83;;
10880;SDS011;5493;48.884;8.338;2023-04-24T02:59:42;4.33;;;0.80;;
10880;SDS011;5493;48.884;8.338;2023-04-24T03:02:08;1.50;;;0.50;;
10880;SDS011;5493;48.884;8.338;2023-04-24T03:04:35;1.90;;;0.60;;
10880;SDS011;5493;48.884;8.338;2023-04-24T03:07:03;1.67;;;0.77;;
10880;SDS011;5493;48.884;8.338;2023-04-24T03:09:30;1.70;;;0.80;;
10880;SDS011;5493;48.884;8.338;2023-04-24T03:11:57;1.67;;;1.03;;
10880;SDS011;5493;48.884;8.338;2023-04-24T03:14:23;3.27;;;1.03;;
10880;SDS011;5493;48.884;8.338;2023-04-24T03:16:50;1.07;;;0.73;;
10880;SDS011;5493;48.884;8.338;2023-04-24T03:19:16;0.60;;;0.57;;
10880;SDS011;5493;48.884;8.338;2023-04-24T03:21:43;0.87;;;0.70;;
10880;SDS011;5493;48.884;8.338;2023-04-24T03:24:11;0.67;;;0.60;;
10880;SDS011;5493;48.884;8.338;2023-04-24T03:26:37;0.67;;;0.57;;
10880;SDS011;5493;48.884;8.338;2023-04-24T03:29:04;2.20;;;0.93;;
10880;SDS011;5493;48.884;8.338;2023-04-24T03:31:30;4.17;;;0.70;;
10880;SDS011;5493;48.884;8.338;2023-04-24T03:33:57;0.70;;;0.70;;
10880;SDS011;5493;48.884;8.338;2023-04-24T03:36:23;0.83;;;0.80;;
10880;SDS011;5493;48.884;8.338;2023-04-24T03:38:51;1.90;;;0.83;;
10880;SDS011;5493;48.884;8.338;2023-04-24T03:41:18;0.87;;;0.80;;
10880;SDS011;5493;48.884;8.338;2023-04-24T03:43:45;0.80;;;0.80;;
10880;SDS011;5493;48.884;8.338;2023-04-24T03:46:11;1.77;;;0.70;;
10880;SDS011;5493;48.884;8.338;2023-04-24T03:48:38;2.47;;;1.00;;
10880;SDS011;5493;48.884;8.338;2023-04-24T03:51:05;1.57;;;1.07;;
10880;SDS011;5493;48.884;8.338;2023-04-24T03:53:31;4.57;;;1.20;;
10880;SDS011;5493;48.884;8.338;2023-04-24T03:55:58;2.97;;;1.40;;
10880;SDS011;5493;48.884;8.338;2023-04-24T03:58:26;1.73;;;1.20;;
10880;SDS011;5493;48.884;8.338;2023-04-24T04:00:53;2.80;;;1.60;;
10880;SDS011;5493;48.884;8.338;2023-04-24T04:03:21;2.63;;;1.33;;
10880;SDS011;5493;48.884;8.338;2023-04-24T04:05:48;3.57;;;1.47;;
10880;SDS011;5493;48.884;8.338;2023-04-24T04:08:14;3.83;;;1.90;;
10880;SDS011;5493;48.884;8.338;2023-04-24T04:10:41;3.37;;;1.43;;
10880;SDS011;5493;48.884;8.338;2023-04-24T04:13:07;1.90;;;1.60;;
10880;SDS011;5493;48.884;8.338;2023-04-24T04:15:36;1.77;;;1.40;;
10880;SDS011;5493;48.884;8.338;2023-04-24T04:18:02;1.63;;;1.00;;
10880;SDS011;5493;48.884;8.338;2023-04-24T04:20:29;3.03;;;1.20;;
10880;SDS011;5493;48.884;8.338;2023-04-24T04:22:56;2.20;;;1.30;;
10880;SDS011;5493;48.884;8.338;2023-04-24T04:25:22;2.20;;;1.30;;
10880;SDS011;5493;48.884;8.338;2023-04-24T04:27:48;1.93;;;1.13;;
10880;SDS011;5493;48.884;8.338;2023-04-24T04:30:16;2.23;;;1.20;;
10880;SDS011;5493;48.884;8.338;2023-04-24T04:32:44;1.27;;;1.03;;
10880;SDS011;5493;48.884;8.338;2023-04-24T04:35:11;1.60;;;1.20;;
10880;SDS011;5493;48.884;8.338;2023-04-24T04:37:37;2.90;;;1.20;;
10880;SDS011;5493;48.884;8.338;2023-04-24T04:40:05;1.30;;;1.10;;
10880;SDS011;5493;48.884;8.338;2023-04-24T04:42:36;1.17;;;1.07;;
10880;SDS011;5493;48.884;8.338;2023-04-24T04:45:05;1.37;;;1.27;;
10880;SDS011;5493;48.884;8.338;2023-04-24T04:47:33;2.33;;;1.50;;
10880;SDS011;5493;48.884;8.338;2023-04-24T04:50:01;1.23;;;1.13;;
10880;SDS011;5493;48.884;8.338;2023-04-24T04:52:28;2.93;;;1.20;;
10880;SDS011;5493;48.884;8.338;2023-04-24T04:54:55;1.70;;;1.17;;
10880;SDS011;5493;48.884;8.338;2023-04-24T04:57:22;1.20;;;1.03;;
10880;SDS011;5493;48.884;8.338;2023-04-24T04:59:48;3.67;;;1.43;;
10880;SDS011;5493;48.884;8.338;2023-04-24T05:02:15;2.33;;;1.43;;
10880;SDS011;5493;48.884;8.338;2023-04-24T05:04:41;2.07;;;1.07;;
10880;SDS011;5493;48.884;8.338;2023-04-24T05:07:09;2.57;;;1.27;;
10880;SDS011;5493;48.884;8.338;2023-04-24T05:09:36;3.23;;;1.30;;
10880;SDS011;5493;48.884;8.338;2023-04-24T05:12:02;4.13;;;1.60;;
10880;SDS011;5493;48.884;8.338;2023-04-24T05:14:29;2.27;;;1.23;;
10880;SDS011;5493;48.884;8.338;2023-04-24T05:16:55;1.80;;;1.30;;
10880;SDS011;5493;48.884;8.338;2023-04-24T05:19:22;2.10;;;1.30;;
10880;SDS011;5493;48.884;8.338;2023-04-24T05:21:48;1.47;;;1.30;;
10880;SDS011;5493;48.884;8.338;2023-04-24T05:24:16;2.37;;;2.17;;
10880;SDS011;5493;48.884;8.338;2023-04-24T05:26:43;1.30;;;1.20;;
10880;SDS011;5493;48.884;8.338;2023-04-24T05:29:09;1.50;;;1.40;;
10880;SDS011;5493;48.884;8.338;2023-04-24T05:31:36;3.00;;;1.30;;
10880;SDS011;5493;48.884;8.338;2023-04-24T05:34:03;3.10;;;1.43;;
10880;SDS011;5493;48.884;8.338;2023-04-24T05:36:30;1.90;;;1.60;;
10880;SDS011;5493;48.884;8.338;2023-04-24T05:38:56;2.13;;;1.30;;
10880;SDS011;5493;48.884;8.338;2023-04-24T05:41:24;1.43;;;1.33;;
10880;SDS011;5493;48.884;8.338;2023-04-24T05:43:51;1.60;;;1.40;;
10880;SDS011;5493;48.884;8.338;2023-04-24T05:46:17;3.87;;;1.50;;
10880;SDS011;5493;48.884;8.338;2023-04-24T05:48:44;1.73;;;1.60;;
10880;SDS011;5493;48.884;8.338;2023-04-24T05:51:10;5.47;;;2.07;;
10880;SDS011;5493;48.884;8.338;2023-04-24T05:53:37;2.40;;;1.87;;
10880;SDS011;5493;48.884;8.338;2023-04-24T05:56:03;2.23;;;1.80;;
10880;SDS011;5493;48.884;8.338;2023-04-24T05:58:31;3.20;;;1.40;;
10880;SDS011;5493;48.884;8.338;2023-04-24T06:00:58;1.90;;;1.50;;
10880;SDS011;5493;48.884;8.338;2023-04-24T06:03:26;2.33;;;1.47;;
10880;SDS011;5493;48.884;8.338;2023-04-24T06:05:53;1.87;;;1.53;;
10880;SDS011;5493;48.884;8.338;2023-04-24T06:08:19;2.47;;;1.60;;
10880;SDS011;5493;48.884;8.338;2023-04-24T06:10:46;1.90;;;1.70;;
10880;SDS011;5493;48.884;8.338;2023-04-24T06:13:12;3.03;;;1.77;;
10880;SDS011;5493;48.884;8.338;2023-04-24T06:15:40;2.13;;;1.30;;
10880;SDS011;5493;48.884;8.338;2023-04-24T06:18:07;1.83;;;1.50;;
10880;SDS011;5493;48.884;8.338;2023-04-24T06:20:35;2.10;;;1.60;;
10880;SDS011;5493;48.884;8.338;2023-04-24T06:23:01;1.50;;;1.40;;
10880;SDS011;5493;48.884;8.338;2023-04-24T06:25:28;2.60;;;1.73;;
10880;SDS011;5493;48.884;8.338;2023-04-24T06:27:55;1.50;;;1.30;;
10880;SDS011;5493;48.884;8.338;2023-04-24T06:30:22;2.90;;;1.70;;
10880;SDS011;5493;48.884;8.338;2023-04-24T06:32:50;3.47;;;1.80;;
10880;SDS011;5493;48.884;8.338;2023-04-24T06:35:17;2.57;;;1.60;;
10880;SDS011;5493;48.884;8.338;2023-04-24T06:37:43;1.87;;;1.60;;
10880;SDS011;5493;48.884;8.338;2023-04-24T06:40:10;1.70;;;1.47;;
10880;SDS011;5493;48.884;8.338;2023-04-24T06:42:37;6.20;;;3.17;;
10880;SDS011;5493;48.884;8.338;2023-04-24T06:45:04;2.60;;;1.97;;
10880;SDS011;5493;48.884;8.338;2023-04-24T06:47:31;2.17;;;1.80;;
10880;SDS011;5493;48.884;8.338;2023-04-24T06:49:59;2.03;;;1.63;;
10880;SDS011;5493;48.884;8.338;2023-04-24T06:52:25;4.03;;;1.80;;
10880;SDS011;5493;48.884;8.338;2023-04-24T06:54:59;2.47;;;1.80;;
10880;SDS011;5493;48.884;8.338;2023-04-24T06:57:27;2.57;;;2.00;;
10880;SDS011;5493;48.884;8.338;2023-04-24T06:59:53;2.63;;;1.70;;
10880;SDS011;5493;48.884;8.338;2023-04-24T07:02:20;2.20;;;1.70;;
10880;SDS011;5493;48.884;8.338;2023-04-24T07:04:46;2.60;;;1.77;;
10880;SDS011;5493;48.884;8.338;2023-04-24T07:07:14;3.67;;;2.00;;
10880;SDS011;5493;48.884;8.338;2023-04-24T07:09:41;2.60;;;1.80;;
10880;SDS011;5493;48.884;8.338;2023-04-24T07:12:09;3.50;;;1.57;;
10880;SDS011;5493;48.884;8.338;2023-04-24T07:14:36;1.80;;;1.70;;
10880;SDS011;5493;48.884;8.338;2023-04-24T07:17:03;2.53;;;1.50;;
10880;SDS011;5493;48.884;8.338;2023-04-24T07:19:29;1.70;;;1.13;;
10880;SDS011;5493;48.884;8.338;2023-04-24T07:21:56;1.90;;;1.33;;
10880;SDS011;5493;48.884;8.338;2023-04-24T07:24:24;3.60;;;1.53;;
10880;SDS011;5493;48.884;8.338;2023-04-24T07:26:51;1.33;;;1.23;;
10880;SDS011;5493;48.884;8.338;2023-04-24T07:29:18;1.23;;;1.13;;
10880;SDS011;5493;48.884;8.338;2023-04-24T07:31:46;2.60;;;1.53;;
10880;SDS011;5493;48.884;8.338;2023-04-24T07:34:12;1.20;;;1.10;;
10880;SDS011;5493;48.884;8.338;2023-04-24T07:36:39;2.60;;;1.30;;
10880;SDS011;5493;48.884;8.338;2023-04-24T07:39:07;3.07;;;1.40;;
10880;SDS011;5493;48.884;8.338;2023-04-24T07:41:35;2.87;;;1.40;;
10880;SDS011;5493;48.884;8.338;2023-04-24T07:44:02;1.50;;;1.20;;
10880;SDS011;5493;48.884;8.338;2023-04-24T07:46:29;1.67;;;1.50;;
10880;SDS011;5493;48.884;8.338;2023-04-24T07:48:56;1.67;;;1.43;;
10880;SDS011;5493;48.884;8.338;2023-04-24T07:51:24;1.23;;;1.00;;
10880;SDS011;5493;48.884;8.338;2023-04-24T07:53:52;2.17;;;1.10;;
10880;SDS011;5493;48.884;8.338;2023-04-24T07:56:19;2.77;;;1.00;;
10880;SDS011;5493;48.884;8.338;2023-04-24T07:58:47;2.40;;;1.30;;
10880;SDS011;5493;48.884;8.338;2023-04-24T08:01:14;2.27;;;1.03;;
10880;SDS011;5493;48.884;8.338;2023-04-24T08:03:40;2.67;;;1.23;;
10880;SDS011;5493;48.884;8.338;2023-04-24T08:06:07;1.30;;;1.00;;
10880;SDS011;5493;48.884;8.338;2023-04-24T08:08:33;0.80;;;0.80;;
10880;SDS011;5493;48.884;8.338;2023-04-24T08:11:00;1.67;;;1.10;;
10880;SDS011;5493;48.884;8.338;2023-04-24T08:13:26;3.07;;;1.10;;
10880;SDS011;5493;48.884;8.338;2023-04-24T08:15:54;1.37;;;0.97;;
10880;SDS011;5493;48.884;8.338;2023-04-24T08:18:22;1.50;;;1.23;;
10880;SDS011;5493;48.884;8.338;2023-04-24T08:20:48;2.27;;;1.23;;
10880;SDS011;5493;48.884;8.338;2023-04-24T08:23:15;1.13;;;1.03;;
10880;SDS011;5493;48.884;8.338;2023-04-24T08:25:41;1.83;;;1.10;;
10880;SDS011;5493;48.884;8.338;2023-04-24T08:28:08;2.20;;;1.23;;
10880;SDS011;5493;48.884;8.338;2023-04-24T08:30:35;2.20;;;1.17;;
10880;SDS011;5493;48.884;8.338;2023-04-24T08:33:04;1.50;;;1.10;;
10880;SDS011;5493;48.884;8.338;2023-04-24T08:35:31;2.23;;;1.10;;
10880;SDS011;5493;48.884;8.338;2023-04-24T08:37:58;1.47;;;1.10;;
10880;SDS011;5493;48.884;8.338;2023-04-24T08:40:27;2.73;;;1.37;;
10880;SDS011;5493;48.884;8.338;2023-04-24T08:42:55;1.10;;;0.87;;
10880;SDS011;5493;48.884;8.338;2023-04-24T08:45:22;1.27;;;1.17;;
10880;SDS011;5493;48.884;8.338;2023-04-24T08:47:49;0.90;;;0.80;;
10880;SDS011;5493;48.884;8.338;2023-04-24T08:50:19;1.27;;;1.13;;
10880;SDS011;5493;48.884;8.338;2023-04-24T08:52:46;2.77;;;1.17;;
10880;SDS011;5493;48.884;8.338;2023-04-24T08:55:15;0.90;;;0.77;;
10880;SDS011;5493;48.884;8.338;2023-04-24T08:57:43;2.33;;;1.33;;
10880;SDS011;5493;48.884;8.338;2023-04-24T09:00:11;1.43;;;0.90;;
10880;SDS011;5493;48.884;8.338;2023-04-24T09:02:39;0.80;;;0.80;;
10880;SDS011;5493;48.884;8.338;2023-04-24T09:05:09;4.00;;;1.00;;
10880;SDS011;5493;48.884;8.338;2023-04-24T09:07:37;1.77;;;0.90;;
10880;SDS011;5493;48.884;8.338;2023-04-24T09:10:05;1.80;;;1.10;;
10880;SDS011;5493;48.884;8.338;2023-04-24T09:12:33;2.00;;;0.90;;
10880;SDS011;5493;48.884;8.338;2023-04-24T09:15:00;4.33;;;1.10;;
10880;SDS011;5493;48.884;8.338;2023-04-24T09:17:29;2.03;;;1.30;;
10880;SDS011;5493;48.884;8.338;2023-04-24T09:19:56;4.20;;;1.10;;
10880;SDS011;5493;48.884;8.338;2023-04-24T09:22:23;1.03;;;1.00;;
10880;SDS011;5493;48.884;8.338;2023-04-24T09:25:00;3.03;;;1.23;;
10880;SDS011;5493;48.884;8.338;2023-04-24T09:27:30;1.20;;;1.10;;
10880;SDS011;5493;48.884;8.338;2023-04-24T09:29:57;1.10;;;1.00;;
10880;SDS011;5493;48.884;8.338;2023-04-24T09:32:24;2.00;;;1.30;;
10880;SDS011;5493;48.884;8.338;2023-04-24T09:35:04;1.70;;;1.00;;
10880;SDS011;5493;48.884;8.338;2023-04-24T09:37:34;1.60;;;1.23;;
10880;SDS011;5493;48.884;8.338;2023-04-24T09:40:10;2.90;;;1.50;;
10880;SDS011;5493;48.884;8.338;2023-04-24T09:42:38;1.23;;;1.00;;
10880;SDS011;5493;48.884;8.338;2023-04-24T09:45:08;1.13;;;1.03;;
10880;SDS011;5493;48.884;8.338;2023-04-24T09:47:35;2.87;;;1.27;;
10880;SDS011;5493;48.884;8.338;2023-04-24T09:50:08;2.50;;;1.80;;
10880;SDS011;5493;48.884;8.338;2023-04-24T09:52:39;2.93;;;1.40;;
10880;SDS011;5493;48.884;8.338;2023-04-24T09:55:11;1.80;;;1.40;;
10880;SDS011;5493;48.884;8.338;2023-04-24T09:57:52;1.33;;;1.20;;
10880;SDS011;5493;48.884;8.338;2023-04-24T10:00:24;1.87;;;1.30;;
10880;SDS011;5493;48.884;8.338;2023-04-24T10:02:56;1.00;;;0.90;;
10880;SDS011;5493;48.884;8.338;2023-04-24T10:05:23;1.70;;;1.40;;
10880;SDS011;5493;48.884;8.338;2023-04-24T10:07:51;1.43;;;1.00;;
10880;SDS011;5493;48.884;8.338;2023-04-24T10:10:19;1.83;;;1.30;;
10880;SDS011;5493;48.884;8.338;2023-04-24T10:12:46;1.67;;;1.20;;
10880;SDS011;5493;48.884;8.338;2023-04-24T10:15:13;1.00;;;0.93;;
10880;SDS011;5493;48.884;8.338;2023-04-24T10:17:45;2.93;;;1.63;;
10880;SDS011;5493;48.884;8.338;2023-04-24T10:20:17;3.00;;;1.70;;
10880;SDS011;5493;48.884;8.338;2023-04-24T10:22:44;1.37;;;1.27;;
10880;SDS011;5493;48.884;8.338;2023-04-24T10:25:14;1.57;;;1.20;;
10880;SDS011;5493;48.884;8.338;2023-04-24T10:27:44;2.67;;;1.60;;
10880;SDS011;5493;48.884;8.338;2023-04-24T10:30:12;3.20;;;1.50;;
10880;SDS011;5493;48.884;8.338;2023-04-24T10:32:39;3.37;;;1.60;;
10880;SDS011;5493;48.884;8.338;2023-04-24T10:35:06;3.03;;;1.60;;
10880;SDS011;5493;48.884;8.338;2023-04-24T10:37:34;3.70;;;2.70;;
10880;SDS011;5493;48.884;8.338;2023-04-24T10:40:03;1.90;;;1.47;;
10880;SDS011;5493;48.884;8.338;2023-04-24T10:42:30;1.87;;;1.40;;
10880;SDS011;5493;48.884;8.338;2023-04-24T10:44:58;1.63;;;1.30;;
10880;SDS011;5493;48.884;8.338;2023-04-24T10:47:27;1.73;;;1.10;;
10880;SDS011;5493;48.884;8.338;2023-04-24T10:49:53;3.23;;;1.47;;
10880;SDS011;5493;48.884;8.338;2023-04-24T10:52:26;1.20;;;1.10;;
10880;SDS011;5493;48.884;8.338;2023-04-24T10:55:10;1.87;;;1.50;;
10880;SDS011;5493;48.884;8.338;2023-04-24T10:57:39;1.57;;;1.30;;
10880;SDS011;5493;48.884;8.338;2023-04-24T11:00:18;1.83;;;1.30;;
10880;SDS011;5493;48.884;8.338;2023-04-24T11:02:46;0.93;;;0.93;;
10880;SDS011;5493;48.884;8.338;2023-04-24T11:05:18;2.40;;;1.70;;
10880;SDS011;5493;48.884;8.338;2023-04-24T11:10:38;1.50;;;1.40;;
10880;SDS011;5493;48.884;8.338;2023-04-24T11:13:10;1.67;;;1.33;;
10880;SDS011;5493;48.884;8.338;2023-04-24T11:15:38;1.67;;;1.37;;
10880;SDS011;5493;48.884;8.338;2023-04-24T11:18:07;1.37;;;1.20;;
10880;SDS011;5493;48.884;8.338;2023-04-24T11:20:41;4.00;;;1.90;;
10880;SDS011;5493;48.884;8.338;2023-04-24T11:23:08;2.27;;;1.83;;
10880;SDS011;5493;48.884;8.338;2023-04-24T11:25:35;2.90;;;2.30;;
10880;SDS011;5493;48.884;8.338;2023-04-24T11:28:04;4.10;;;1.63;;
10880;SDS011;5493;48.884;8.338;2023-04-24T11:30:32;0.83;;;0.77;;
10880;SDS011;5493;48.884;8.338;2023-04-24T11:33:03;1.17;;;1.03;;
10880;SDS011;5493;48.884;8.338;2023-04-24T11:35:30;1.37;;;1.27;;
10880;SDS011;5493;48.884;8.338;2023-04-24T11:38:02;1.70;;;1.40;;
10880;SDS011;5493;48.884;8.338;2023-04-24T11:40:30;2.17;;;1.70;;
10880;SDS011;5493;48.884;8.338;2023-04-24T11:42:59;3.20;;;1.70;;
10880;SDS011;5493;48.884;8.338;2023-04-24T11:45:26;2.27;;;1.67;;
10880;SDS011;5493;48.884;8.338;2023-04-24T11:47:53;1.63;;;1.53;;
10880;SDS011;5493;48.884;8.338;2023-04-24T11:50:22;3.13;;;1.80;;
10880;SDS011;5493;48.884;8.338;2023-04-24T11:52:50;1.93;;;1.73;;
10880;SDS011;5493;48.884;8.338;2023-04-24T11:55:27;2.90;;;2.03;;
10880;SDS011;5493;48.884;8.338;2023-04-24T11:57:55;2.90;;;2.30;;
10880;SDS011;5493;48.884;8.338;2023-04-24T12:00:24;2.87;;;2.20;;
10880;SDS011;5493;48.884;8.338;2023-04-24T12:03:03;3.37;;;1.73;;
10880;SDS011;5493;48.884;8.338;2023-04-24T12:05:33;2.67;;;1.93;;
10880;SDS011;5493;48.884;8.338;2023-04-24T12:08:00;3.23;;;2.30;;
10880;SDS011;5493;48.884;8.338;2023-04-24T12:10:27;3.47;;;2.47;;
10880;SDS011;5493;48.884;8.338;2023-04-24T12:12:55;2.30;;;2.10;;
10880;SDS011;5493;48.884;8.338;2023-04-24T12:15:23;2.57;;;1.87;;
10880;SDS011;5493;48.884;8.338;2023-04-24T12:17:50;2.13;;;1.83;;
10880;SDS011;5493;48.884;8.338;2023-04-24T12:20:22;3.30;;;2.40;;
10880;SDS011;5493;48.884;8.338;2023-04-24T12:22:52;3.87;;;2.40;;
10880;SDS011;5493;48.884;8.338;2023-04-24T12:25:20;2.00;;;1.80;;
10880;SDS011;5493;48.884;8.338;2023-04-24T12:27:51;3.10;;;2.00;;
10880;SDS011;5493;48.884;8.338;2023-04-24T12:30:19;3.23;;;2.13;;
10880;SDS011;5493;48.884;8.338;2023-04-24T12:32:47;1.43;;;1.10;;
10880;SDS011;5493;48.884;8.338;2023-04-24T12:35:18;1.80;;;1.47;;
10880;SDS011;5493;48.884;8.338;2023-04-24T12:37:46;1.33;;;1.23;;
10880;SDS011;5493;48.884;8.338;2023-04-24T12:40:14;1.77;;;1.37;;
10880;SDS011;5493;48.884;8.338;2023-04-24T12:42:41;2.90;;;1.50;;
10880;SDS011;5493;48.884;8.338;2023-04-24T12:45:09;2.23;;;1.90;;
10880;SDS011;5493;48.884;8.338;2023-04-24T12:47:37;1.97;;;1.53;;
10880;SDS011;5493;48.884;8.338;2023-04-24T12:50:05;4.10;;;1.93;;
10880;SDS011;5493;48.884;8.338;2023-04-24T12:52:32;2.63;;;2.00;;
10880;SDS011;5493;48.884;8.338;2023-04-24T12:55:00;2.30;;;1.90;;
10880;SDS011;5493;48.884;8.338;2023-04-24T12:57:28;2.63;;;2.03;;
10880;SDS011;5493;48.884;8.338;2023-04-24T12:59:56;2.57;;;2.27;;
10880;SDS011;5493;48.884;8.338;2023-04-24T13:02:24;2.97;;;2.20;;
10880;SDS011;5493;48.884;8.338;2023-04-24T13:04:52;4.77;;;2.40;;
10880;SDS011;5493;48.884;8.338;2023-04-24T13:07:19;2.90;;;2.40;;
10880;SDS011;5493;48.884;8.338;2023-04-24T13:09:47;2.13;;;1.93;;
10880;SDS011;5493;48.884;8.338;2023-04-24T13:12:14;4.17;;;2.10;;
10880;SDS011;5493;48.884;8.338;2023-04-24T13:14:42;2.60;;;1.90;;
10880;SDS011;5493;48.884;8.338;2023-04-24T13:17:09;2.50;;;2.03;;
10880;SDS011;5493;48.884;8.338;2023-04-24T13:19:37;2.27;;;1.80;;
10880;SDS011;5493;48.884;8.338;2023-04-24T13:22:04;2.77;;;2.40;;
10880;SDS011;5493;48.884;8.338;2023-04-24T13:24:31;3.00;;;2.23;;
10880;SDS011;5493;48.884;8.338;2023-04-24T13:26:58;4.37;;;2.47;;
10880;SDS011;5493;48.884;8.338;2023-04-24T13:29:25;2.57;;;2.00;;
10880;SDS011;5493;48.884;8.338;2023-04-24T13:31:54;2.20;;;1.87;;
10880;SDS011;5493;48.884;8.338;2023-04-24T13:34:21;2.33;;;1.90;;
10880;SDS011;5493;48.884;8.338;2023-04-24T13:36:49;1.83;;;1.73;;
10880;SDS011;5493;48.884;8.338;2023-04-24T13:39:16;4.07;;;1.70;;
10880;SDS011;5493;48.884;8.338;2023-04-24T13:41:43;1.40;;;1.27;;
10880;SDS011;5493;48.884;8.338;2023-04-24T13:44:10;2.03;;;1.53;;
10880;SDS011;5493;48.884;8.338;2023-04-24T13:46:36;4.40;;;3.03;;
10880;SDS011;5493;48.884;8.338;2023-04-24T13:49:04;8.37;;;5.30;;
10880;SDS011;5493;48.884;8.338;2023-04-24T13:51:31;2.73;;;1.90;;
10880;SDS011;5493;48.884;8.338;2023-04-24T13:53:58;2.37;;;1.70;;
10880;SDS011;5493;48.884;8.338;2023-04-24T13:56:25;3.17;;;2.10;;
10880;SDS011;5493;48.884;8.338;2023-04-24T13:58:52;1.63;;;1.50;;
10880;SDS011;5493;48.884;8.338;2023-04-24T14:01:19;1.53;;;1.30;;
10880;SDS011;5493;48.884;8.338;2023-04-24T14:03:46;3.13;;;1.70;;
10880;SDS011;5493;48.884;8.338;2023-04-24T14:06:14;2.10;;;1.90;;
10880;SDS011;5493;48.884;8.338;2023-04-24T14:08:40;4.20;;;1.73;;
10880;SDS011;5493;48.884;8.338;2023-04-24T14:11:07;3.60;;;2.53;;
10880;SDS011;5493;48.884;8.338;2023-04-24T14:13:33;3.23;;;1.90;;
10880;SDS011;5493;48.884;8.338;2023-04-24T14:16:00;4.17;;;1.70;;
10880;SDS011;5493;48.884;8.338;2023-04-24T14:18:27;3.33;;;2.27;;
10880;SDS011;5493;48.884;8.338;2023-04-24T14:20:53;1.37;;;1.27;;
10880;SDS011;5493;48.884;8.338;2023-04-24T14:23:21;1.20;;;1.07;;
10880;SDS011;5493;48.884;8.338;2023-04-24T14:25:48;2.40;;;1.90;;
10880;SDS011;5493;48.884;8.338;2023-04-24T14:28:17;2.37;;;1.33;;
10880;SDS011;5493;48.884;8.338;2023-04-24T14:30:44;1.27;;;1.17;;
10880;SDS011;5493;48.884;8.338;2023-04-24T14:33:10;2.30;;;1.40;;
10880;SDS011;5493;48.884;8.338;2023-04-24T14:35:37;2.13;;;1.50;;
10880;SDS011;5493;48.884;8.338;2023-04-24T14:38:04;3.93;;;2.10;;
10880;SDS011;5493;48.884;8.338;2023-04-24T14:40:32;1.30;;;1.20;;
10880;SDS011;5493;48.884;8.338;2023-04-24T14:42:59;2.57;;;1.90;;
10880;SDS011;5493;48.884;8.338;2023-04-24T14:45:25;3.37;;;1.93;;
10880;SDS011;5493;48.884;8.338;2023-04-24T14:47:52;2.17;;;1.37;;
10880;SDS011;5493;48.884;8.338;2023-04-24T14:50:19;4.13;;;2.27;;
10880;SDS011;5493;48.884;8.338;2023-04-24T14:52:46;2.07;;;1.47;;
10880;SDS011;5493;48.884;8.338;2023-04-24T14:55:13;2.77;;;1.87;;
10880;SDS011;5493;48.884;8.338;2023-04-24T14:57:40;2.90;;;1.60;;
10880;SDS011;5493;48.884;8.338;2023-04-24T15:00:07;2.63;;;1.60;;
10880;SDS011;5493;48.884;8.338;2023-04-24T15:02:35;3.83;;;1.50;;
10880;SDS011;5493;48.884;8.338;2023-04-24T15:05:05;1.57;;;1.40;;